Flight Track Log - Related Links

Times and Time Zones

All times are in EDT time to prevent confusion due to time zone crossing. See the AMF1326 flight status page for this flight to view local times or setup timezone preferences in your user account.

Time Position Orientation Groundspeed Altitude Reporting Facility
EDT Latitude Longitude Course Direction KTS MPH feet Rate Location/Type
Wed 07:26:53 AM 41.4039 -75.6694 34° Northeast 180 207 4,300  Level New York Center
Wed 07:27:00 AM 41.4632 -75.5881 17° North  Level FlightAware Approximate
Wed 07:27:53 AM 41.4408 -75.6306 38° Northeast 190 219 6,100  Level New York Center
Wed 07:28:00 AM 41.5259 -75.5636 14° North  Level FlightAware Approximate
Wed 07:28:53 AM 41.4897 -75.6036 22° Northeast 185 213 7,600  Level New York Center
Wed 07:29:00 AM 41.5887 -75.5395 20° North  Level FlightAware Approximate
Wed 07:29:53 AM 41.5364 -75.5819 19° North 185 213 8,600  Level New York Center
Wed 07:30:00 AM 41.6502 -75.5101 20° North  Level FlightAware Approximate
Wed 07:30:53 AM 41.5981 -75.5506 21° North 204 235 9,700  Level New York Center
Wed 07:31:00 AM 41.7118 -75.4807 20° North  Level FlightAware Approximate
Wed 07:32:29 AM 41.6744 -75.5017 26° Northeast 219 252 11,000  Level Boston Center
Wed 07:33:29 AM 41.7386 -75.4858 10° North 233 268 11,000  Level Boston Center
Wed 07:34:30 AM 41.8211 -75.4600 13° North 256 295 11,000  Level Boston Center
Wed 07:35:32 AM 41.8861 -75.4169 26° Northeast 258 297 11,000  Level Boston Center
Wed 07:36:31 AM 41.9536 -75.3822 21° North 261 300 11,000  Level Boston Center
Wed 07:37:35 AM 42.0197 -75.3389 26° Northeast 262 302 11,000  Level Boston Center
Wed 07:38:35 AM 42.0744 -75.2742 41° Northeast 274 315 11,000  Level Boston Center
Wed 07:39:36 AM 42.1167 -75.1886 56° Northeast 276 318 11,000  Level Boston Center
Wed 07:40:36 AM 42.1600 -75.1011 56° Northeast 288 331 11,000  Level Boston Center
Wed 07:41:40 AM 42.2117 -74.9994 56° Northeast 278 320 11,000  Level Boston Center
Wed 07:42:40 AM 42.2531 -74.9108 58° Northeast 279 321 11,000  Level Boston Center
Wed 07:43:42 AM 42.2956 -74.8219 57° Northeast 284 327 11,000  Level Boston Center
Wed 07:44:55 AM 42.3419 -74.7092 61° Northeast 282 325 11,000  Level Boston Center
Wed 07:45:43 AM 42.3769 -74.6308 59° Northeast 283 326 11,000  Level Boston Center
Wed 07:46:20 AM 42.3983 -74.5836 58° Northeast 282 325 11,000  Level Boston Center
Wed 07:46:44 AM 42.4158 -74.5394 62° Northeast 281 323 11,000  Level Boston Center
Wed 07:47:26 AM 42.4419 -74.4797 59° Northeast 281 323 11,000  Level Boston Center
Wed 07:47:47 AM 42.4556 -74.4489 59° Northeast 282 325 11,000 -512 Level Boston Center
Wed 07:48:48 AM 42.4950 -74.3572 60° Northeast 282 325 10,300 -906 Descending Boston Center
Wed 07:49:33 AM 42.5297 -74.2892 55° Northeast 273 314 9,400 -1,200 Descending Boston Center
Wed 07:49:48 AM 42.5406 -74.2669 57° Northeast 271 312 9,100 -1,600 Descending Boston Center
Wed 07:50:33 AM 42.5700 -74.2014 59° Northeast 269 310 7,800 -1,574 Descending Boston Center
Wed 07:50:49 AM 42.5789 -74.1786 62° Northeast 271 312 7,500 -1,043 Descending Boston Center
Wed 07:51:42 AM 42.5950 -74.1022 74° East 267 307 6,600 -1,105 Descending Boston Center
Wed 07:52:43 AM 42.5981 -74.0044 88° East 253 291 5,400 -835 Descending Boston Center
Wed 07:53:37 AM 42.6017 -73.9156 87° East 261 300 5,000 -348 Descending Boston Center
Wed 07:53:52 AM 42.6031 -73.8828 87° East 261 300 5,000 -109 Level Boston Center
Wed 07:54:32 AM 42.6017 -73.8225 92° East 267 307 4,900 -469 Descending Boston Center
Wed 07:54:56 AM 42.6053 -73.7864 82° East 259 298 4,500 -818 Descending Boston Center
Wed 07:55:38 AM 42.6208 -73.7300 69° East 215 247 4,000 -500 Descending Boston Center
Wed 07:55:56 AM 42.6331 -73.7247 18° North 209 241 4,000 -556 Level Boston Center
Wed 07:56:32 AM 42.6636 -73.7067 23° Northeast 172 198 3,500 -787 Descending Boston Center
Wed 07:56:57 AM 42.6828 -73.6997 15° North 182 209 3,200 -536 Descending Boston Center
Wed 07:57:28 AM 42.6994 -73.6867 30° Northeast 154 177 3,000 -787 Descending Boston Center
Wed 07:57:58 AM 42.7194 -73.6806 13° North 141 162 2,400 -1,100 Descending Boston Center
Wed 07:58:28 AM 42.7344 -73.6956 324° Northwest 121 139 1,900 -800 Descending Boston Center
Wed 07:58:58 AM 42.7458 -73.7117 314° West 129 148 1,600 -706 Descending Boston Center
Wed 07:59:36 AM 42.7508 -73.7358 286° West 111 128 1,100 -677 Descending Boston Center
Wed 08:00:00 AM 42.7508 -73.7561 270° West 116 133 900 -590 Descending Boston Center
Wed 08:00:37 AM 42.7492 -73.7792 264° West 118 136 500 -590 Descending Boston Center
Wed 08:01:01 AM 42.7494 -73.7997 271° West 116 133 300 -500 Descending Boston Center

Login

Don't have an account? Register now (free) for customized features, flight alerts, and more!